createdAt,value
2023-05-21T00:00:46.321Z,100072.50
2023-05-21T00:03:49.970Z,100085.88
2023-05-21T00:06:52.257Z,100119.84
2023-05-21T00:09:54.971Z,100124.28
2023-05-21T00:12:56.809Z,100135.63
2023-05-21T00:16:00.161Z,100149.38
2023-05-21T00:19:03.650Z,100130.53
2023-05-21T00:22:05.813Z,100146.78
2023-05-21T00:25:08.818Z,100140.31
2023-05-21T00:28:11.646Z,100139.75
2023-05-21T00:31:16.105Z,100140.38
2023-05-21T00:34:18.229Z,100153.09
2023-05-21T00:37:20.903Z,100122.56
2023-05-21T00:40:22.796Z,100135.84
2023-05-21T00:43:26.665Z,100139.00
2023-05-21T00:46:30.391Z,100142.59
2023-05-21T00:49:32.658Z,100136.22
2023-05-21T00:52:41.664Z,100130.66
2023-05-21T00:55:46.476Z,100133.97
2023-05-21T00:58:48.731Z,100139.53
2023-05-21T01:01:56.262Z,100109.56
2023-05-21T01:05:00.421Z,100142.09
2023-05-21T01:08:03.240Z,100098.25
2023-05-21T01:11:06.529Z,100132.78
2023-05-21T01:14:10.262Z,100131.56
2023-05-21T01:17:14.152Z,100123.97
2023-05-21T01:20:20.172Z,100126.22
2023-05-21T01:23:23.609Z,100125.75
2023-05-21T01:26:26.157Z,100124.66
2023-05-21T01:29:28.639Z,100114.56
2023-05-21T01:32:35.127Z,100126.28
2023-05-21T01:35:41.953Z,100120.56
2023-05-21T01:38:53.480Z,100121.94
2023-05-21T01:41:56.468Z,100123.91
2023-05-21T01:44:59.674Z,100113.06
2023-05-21T01:48:03.641Z,100125.63
2023-05-21T01:51:06.490Z,100120.19
2023-05-21T01:54:09.811Z,100126.38
2023-05-21T01:57:12.077Z,100112.78
2023-05-21T02:00:15.174Z,100117.09
2023-05-21T02:03:17.652Z,100126.13
2023-05-21T02:06:20.398Z,100124.47
2023-05-21T02:09:23.735Z,100129.22
2023-05-21T02:12:25.982Z,100103.34
2023-05-21T02:15:27.889Z,100116.16
2023-05-21T02:18:29.702Z,100100.56
2023-05-21T02:21:32.492Z,100107.13
2023-05-21T02:24:35.721Z,100106.91
2023-05-21T02:27:38.641Z,100113.84
2023-05-21T02:30:41.347Z,100119.38
2023-05-21T02:33:43.279Z,100115.22
2023-05-21T02:36:48.506Z,100114.50
2023-05-21T02:39:51.768Z,100110.81
2023-05-21T02:42:55.543Z,100114.31
2023-05-21T02:45:57.451Z,100109.78
2023-05-21T02:48:59.406Z,100112.38
2023-05-21T02:52:01.529Z,100044.75
2023-05-21T02:55:05.553Z,100105.25
2023-05-21T02:58:07.457Z,100090.53
2023-05-21T03:01:10.369Z,100108.09
2023-05-21T03:04:12.229Z,100117.09
2023-05-21T03:07:15.187Z,100110.66
2023-05-21T03:10:18.520Z,100103.94
2023-05-21T03:13:20.464Z,100108.91
2023-05-21T03:16:23.334Z,100091.50
2023-05-21T03:19:25.414Z,100105.00
2023-05-21T03:22:28.277Z,100109.72
2023-05-21T03:25:31.664Z,100116.72
2023-05-21T03:28:34.991Z,100110.34
2023-05-21T03:31:36.921Z,100108.63
2023-05-21T03:34:39.184Z,100113.28
2023-05-21T03:37:41.130Z,100113.00
2023-05-21T03:40:44.627Z,100109.88
2023-05-21T03:43:46.461Z,100108.44
2023-05-21T03:46:48.268Z,100116.84
2023-05-21T03:49:52.663Z,100108.59
2023-05-21T03:52:54.448Z,100114.13
2023-05-21T03:55:57.651Z,100111.00
2023-05-21T03:58:59.452Z,100115.91
2023-05-21T04:02:01.378Z,100111.41
2023-05-21T04:05:05.172Z,100104.75
2023-05-21T04:08:07.371Z,100117.13
2023-05-21T04:11:11.455Z,100121.31
2023-05-21T04:14:13.312Z,100092.91
2023-05-21T04:17:15.223Z,100113.03
2023-05-21T04:20:18.549Z,100113.91
2023-05-21T04:23:23.600Z,100111.63
2023-05-21T04:26:28.150Z,100114.91
2023-05-21T04:29:30.259Z,100112.28
2023-05-21T04:32:33.476Z,100119.44
2023-05-21T04:35:36.227Z,100112.69
2023-05-21T04:38:39.921Z,100125.22
2023-05-21T04:41:43.167Z,100109.81
2023-05-21T04:44:46.056Z,100117.66
2023-05-21T04:47:48.070Z,100121.47
2023-05-21T04:50:50.020Z,100096.34
2023-05-21T04:53:52.111Z,100117.94
2023-05-21T04:56:55.414Z,100126.44
2023-05-21T04:59:58.064Z,100117.44
2023-05-21T05:03:00.169Z,100120.00
2023-05-21T05:06:04.493Z,100117.16
2023-05-21T05:09:06.357Z,100115.13
2023-05-21T05:12:09.653Z,100112.69
2023-05-21T05:15:13.813Z,100102.38
2023-05-21T05:18:16.487Z,100105.13
2023-05-21T05:21:18.382Z,100110.72
2023-05-21T05:24:21.020Z,100101.88
2023-05-21T05:27:24.328Z,100107.72
2023-05-21T05:30:26.943Z,100108.56
2023-05-21T05:33:28.752Z,100114.38
2023-05-21T05:36:31.674Z,100096.19
2023-05-21T05:39:33.686Z,100095.38
2023-05-21T05:42:37.363Z,100090.84
2023-05-21T05:45:39.443Z,100100.97
2023-05-21T05:48:41.900Z,100095.41
2023-05-21T05:51:43.716Z,100094.16
2023-05-21T05:54:46.114Z,100096.66
2023-05-21T05:57:49.312Z,100075.75
2023-05-21T06:00:52.501Z,100077.41
2023-05-21T06:03:54.476Z,100090.44
2023-05-21T06:06:57.661Z,100074.69
2023-05-21T06:10:02.162Z,100080.06
2023-05-21T06:13:06.309Z,100080.84
2023-05-21T06:16:10.014Z,100077.09
2023-05-21T06:19:12.848Z,100075.38
2023-05-21T06:22:14.796Z,100072.84
2023-05-21T06:25:16.759Z,100079.34
2023-05-21T06:28:20.175Z,100061.63
2023-05-21T06:31:22.592Z,100066.09
2023-05-21T06:34:24.482Z,100079.66
2023-05-21T06:37:26.737Z,100063.31
2023-05-21T06:40:28.668Z,100045.56
2023-05-21T06:43:32.147Z,100048.69
2023-05-21T06:46:34.871Z,100045.09
2023-05-21T06:49:37.925Z,100059.94
2023-05-21T06:52:39.843Z,100069.13
2023-05-21T06:55:44.403Z,100060.41
2023-05-21T06:58:47.722Z,100060.41
2023-05-21T07:01:49.755Z,100041.69
2023-05-21T07:04:53.739Z,100049.56
2023-05-21T07:07:55.734Z,100043.44
2023-05-21T07:10:57.633Z,100042.59
2023-05-21T07:14:02.148Z,100034.50
2023-05-21T07:17:04.471Z,100050.16
2023-05-21T07:20:08.470Z,100038.28
2023-05-21T07:23:10.452Z,100033.53
2023-05-21T07:26:12.380Z,100041.88
2023-05-21T07:29:16.082Z,100033.59
2023-05-21T07:32:17.894Z,100041.06
2023-05-21T07:35:20.210Z,100032.13
2023-05-21T07:38:22.609Z,100037.22
2023-05-21T07:41:24.468Z,100041.66
2023-05-21T07:44:28.112Z,100026.94
2023-05-21T07:47:30.076Z,100034.16
2023-05-21T07:50:32.662Z,100022.50
2023-05-21T07:53:34.606Z,100045.00
2023-05-21T07:56:36.639Z,100036.16
2023-05-21T07:59:44.168Z,99975.69
2023-05-21T08:02:46.446Z,99914.38
2023-05-21T08:05:49.293Z,99983.28
2023-05-21T08:08:51.181Z,99945.84
2023-05-21T08:11:53.537Z,99959.25
2023-05-21T08:14:57.520Z,99955.78
2023-05-21T08:17:59.515Z,99957.97
2023-05-21T08:21:01.734Z,99964.53
2023-05-21T08:24:03.827Z,99965.13
2023-05-21T08:27:05.952Z,99952.06
2023-05-21T08:30:11.782Z,99964.41
2023-05-21T08:33:14.196Z,100014.88
2023-05-21T08:36:16.532Z,100027.00
2023-05-21T08:39:18.458Z,100023.75
2023-05-21T08:42:36.899Z,100024.66
2023-05-21T08:45:44.949Z,100018.75
2023-05-21T08:48:47.779Z,100026.97
2023-05-21T08:51:50.383Z,100019.56
2023-05-21T08:54:53.276Z,100014.75
2023-05-21T08:57:55.502Z,100037.63
2023-05-21T09:00:58.983Z,100021.59
2023-05-21T09:04:12.657Z,99993.47
2023-05-21T09:07:22.919Z,100007.19
2023-05-21T09:10:30.076Z,100005.25
2023-05-21T09:13:33.410Z,99995.66
2023-05-21T09:16:36.818Z,99999.94
2023-05-21T09:19:38.838Z,99986.69
2023-05-21T09:22:42.674Z,99992.31
2023-05-21T09:25:46.684Z,100007.47
2023-05-21T09:28:51.477Z,99989.09
2023-05-21T09:31:55.216Z,99996.28
2023-05-21T09:35:06.867Z,99997.78
2023-05-21T09:38:09.725Z,99989.28
2023-05-21T09:41:11.572Z,100007.53
2023-05-21T09:44:14.456Z,100004.41
2023-05-21T09:47:21.586Z,99998.25
2023-05-21T09:50:25.241Z,99994.63
2023-05-21T09:53:29.571Z,100001.69
2023-05-21T09:56:34.638Z,99989.97
2023-05-21T09:59:39.498Z,99912.63
2023-05-21T10:02:44.750Z,99993.75
2023-05-21T10:05:47.388Z,99957.97
2023-05-21T10:08:53.787Z,99978.16
2023-05-21T10:11:56.893Z,99974.63
2023-05-21T10:15:03.475Z,99936.06
2023-05-21T10:18:07.278Z,99981.38
2023-05-21T10:21:09.474Z,99977.25
2023-05-21T10:24:11.614Z,99966.41
2023-05-21T10:27:14.452Z,99972.41
2023-05-21T10:30:18.643Z,99967.56
2023-05-21T10:33:24.429Z,99957.94
2023-05-21T10:36:31.832Z,99960.84
2023-05-21T10:39:34.773Z,99965.53
2023-05-21T10:43:08.951Z,99959.03
2023-05-21T10:46:40.536Z,99955.47
2023-05-21T10:49:59.463Z,99954.94
2023-05-21T10:53:13.100Z,99963.63
2023-05-21T10:56:22.975Z,99951.13
2023-05-21T10:59:36.607Z,99959.34
2023-05-21T11:02:39.171Z,99953.47
2023-05-21T11:05:52.474Z,99942.94
2023-05-21T11:08:55.891Z,99951.94
2023-05-21T11:11:58.984Z,99923.81
2023-05-21T11:15:00.852Z,99943.78
2023-05-21T11:18:02.815Z,99939.59
2023-05-21T11:21:07.088Z,99947.75
2023-05-21T11:24:10.976Z,99935.16
2023-05-21T11:27:13.040Z,99943.88
2023-05-21T11:30:17.087Z,99936.53
2023-05-21T11:33:19.710Z,99938.19
2023-05-21T11:36:22.925Z,99940.72
2023-05-21T11:39:25.921Z,99934.19
2023-05-21T11:42:29.533Z,99921.34
2023-05-21T11:45:33.424Z,99936.44
2023-05-21T11:48:38.090Z,99940.72
2023-05-21T11:51:41.709Z,99931.22
2023-05-21T11:54:50.694Z,99943.00
2023-05-21T11:57:54.456Z,99931.97
2023-05-21T12:00:56.996Z,99933.47
2023-05-21T12:03:58.867Z,99930.06
2023-05-21T12:07:04.131Z,99921.91
2023-05-21T12:10:07.578Z,99918.53
2023-05-21T12:13:10.145Z,99916.41
2023-05-21T12:16:13.068Z,99916.69
2023-05-21T12:19:17.695Z,99921.97
2023-05-21T12:22:21.464Z,99916.81
2023-05-21T12:25:23.540Z,99910.41
2023-05-21T12:28:25.683Z,99912.03
2023-05-21T12:31:30.347Z,99910.88
2023-05-21T12:34:43.267Z,99910.28
2023-05-21T12:37:47.327Z,99893.44
2023-05-21T12:40:49.169Z,99901.63
2023-05-21T12:43:52.082Z,99885.84
2023-05-21T12:46:53.943Z,99885.03
2023-05-21T12:50:00.513Z,99897.00
2023-05-21T12:53:03.940Z,99891.00
2023-05-21T12:56:12.659Z,99890.63
2023-05-21T12:59:15.663Z,99882.28
2023-05-21T13:02:21.959Z,99879.09
2023-05-21T13:05:23.848Z,99869.09
2023-05-21T13:08:27.289Z,99876.31
2023-05-21T13:11:29.311Z,99863.66
2023-05-21T13:14:34.384Z,99867.16
2023-05-21T13:17:36.861Z,99815.84
2023-05-21T13:20:38.887Z,99861.31
2023-05-21T13:23:42.332Z,99849.41
2023-05-21T13:26:44.219Z,99851.41
2023-05-21T13:29:46.084Z,99838.81
2023-05-21T13:32:48.872Z,99846.69
2023-05-21T13:35:51.933Z,99842.63
2023-05-21T13:38:56.555Z,99854.25
2023-05-21T13:41:59.307Z,99848.47
2023-05-21T13:45:01.946Z,99837.22
2023-05-21T13:48:04.155Z,99830.97
2023-05-21T13:51:06.829Z,99836.69
2023-05-21T13:54:10.264Z,99821.09
2023-05-21T13:57:12.160Z,99824.50
2023-05-21T14:00:15.824Z,99827.91
2023-05-21T14:03:18.200Z,99811.81
2023-05-21T14:06:21.254Z,99821.28
2023-05-21T14:09:27.278Z,99826.69
2023-05-21T14:12:29.816Z,99828.31
2023-05-21T14:15:32.397Z,99801.97
2023-05-21T14:18:34.244Z,99825.13
2023-05-21T14:21:36.734Z,99813.94
2023-05-21T14:24:40.033Z,99820.19
2023-05-21T14:27:41.858Z,99824.25
2023-05-21T14:30:44.742Z,99819.47
2023-05-21T14:33:46.612Z,99835.00
2023-05-21T14:36:48.474Z,99820.53
2023-05-21T14:39:51.687Z,99815.59
2023-05-21T14:42:53.552Z,99802.13
2023-05-21T14:45:55.727Z,99809.41
2023-05-21T14:49:00.726Z,99807.19
2023-05-21T14:52:03.830Z,99799.84
2023-05-21T14:55:08.005Z,99808.31
2023-05-21T14:58:10.581Z,99815.50
2023-05-21T15:01:12.493Z,99789.66
2023-05-21T15:04:14.538Z,99802.44
2023-05-21T15:07:16.525Z,99801.31
2023-05-21T15:10:19.800Z,99805.94
2023-05-21T15:13:22.629Z,99810.16
2023-05-21T15:16:24.625Z,99792.31
2023-05-21T15:19:26.636Z,99801.03
2023-05-21T15:22:28.509Z,99785.19
2023-05-21T15:25:31.909Z,99794.97
2023-05-21T15:28:33.809Z,99802.56
2023-05-21T15:31:35.667Z,99793.50
2023-05-21T15:34:38.601Z,99798.56
2023-05-21T15:37:40.611Z,99803.94
2023-05-21T15:40:44.348Z,99792.13
2023-05-21T15:43:46.286Z,99789.81
2023-05-21T15:46:51.479Z,99791.31
2023-05-21T15:49:53.512Z,99791.25
2023-05-21T15:52:55.377Z,99792.31
2023-05-21T15:55:58.829Z,99793.53
2023-05-21T15:59:01.554Z,99797.19
2023-05-21T16:02:03.430Z,99805.06
2023-05-21T16:05:05.884Z,99772.28
2023-05-21T16:08:10.751Z,99800.84
2023-05-21T16:11:14.646Z,99805.38
2023-05-21T16:14:16.491Z,99802.09
2023-05-21T16:17:19.803Z,99806.25
2023-05-21T16:20:22.422Z,99810.78
2023-05-21T16:23:24.425Z,99808.72
2023-05-21T16:26:27.655Z,99812.47
2023-05-21T16:29:30.434Z,99814.44
2023-05-21T16:32:33.170Z,99804.78
2023-05-21T16:35:35.345Z,99780.94
2023-05-21T16:38:38.261Z,99815.97
2023-05-21T16:41:43.433Z,99812.34
2023-05-21T16:44:45.381Z,99814.53
2023-05-21T16:47:48.096Z,99813.59
2023-05-21T16:50:50.308Z,99811.97
2023-05-21T16:53:52.267Z,99814.28
2023-05-21T16:56:55.856Z,99812.53
2023-05-21T16:59:57.885Z,99810.72
2023-05-21T17:03:00.574Z,99824.84
2023-05-21T17:06:02.475Z,99822.28
2023-05-21T17:09:05.462Z,99834.78
2023-05-21T17:12:08.905Z,99826.97
2023-05-21T17:15:10.940Z,99827.59
2023-05-21T17:18:13.419Z,99822.22
2023-05-21T17:21:15.464Z,99826.50
2023-05-21T17:24:17.533Z,99807.94
2023-05-21T17:27:21.619Z,99815.78
2023-05-21T17:30:23.505Z,99812.75
2023-05-21T17:33:26.541Z,99816.50
2023-05-21T17:36:28.524Z,99774.78
2023-05-21T17:39:30.390Z,99804.22
2023-05-21T17:42:34.610Z,99820.38
2023-05-21T17:45:36.608Z,99834.19
2023-05-21T17:48:38.635Z,99829.03
2023-05-21T17:51:41.198Z,99824.97
2023-05-21T17:54:43.075Z,99835.44
2023-05-21T17:57:46.607Z,99832.47
2023-05-21T18:00:48.496Z,99806.59
2023-05-21T18:03:51.194Z,99830.31
2023-05-21T18:06:53.199Z,99815.50
2023-05-21T18:09:55.149Z,99807.19
2023-05-21T18:12:58.386Z,99827.63
2023-05-21T18:16:00.328Z,99819.19
2023-05-21T18:19:05.966Z,99833.19
2023-05-21T18:22:08.134Z,99832.03
2023-05-21T18:25:10.946Z,99829.38
2023-05-21T18:28:14.211Z,99814.94
2023-05-21T18:31:17.344Z,99830.81
2023-05-21T18:34:20.096Z,99834.16
2023-05-21T18:37:22.011Z,99835.81
2023-05-21T18:40:25.736Z,99836.63
2023-05-21T18:43:31.640Z,99833.56
2023-05-21T18:46:33.782Z,99836.22
2023-05-21T18:49:36.367Z,99818.50
2023-05-21T18:52:38.797Z,99840.31
2023-05-21T18:55:41.125Z,99847.38
2023-05-21T18:58:44.392Z,99844.28
2023-05-21T19:01:46.378Z,99846.34
2023-05-21T19:04:48.923Z,99843.66
2023-05-21T19:07:51.048Z,99839.50
2023-05-21T19:10:53.076Z,99855.22
2023-05-21T19:14:00.855Z,99858.06
2023-05-21T19:17:02.797Z,99785.72
2023-05-21T19:20:05.883Z,99820.22
2023-05-21T19:23:10.515Z,99869.66
2023-05-21T19:26:21.584Z,99835.88
2023-05-21T19:29:27.189Z,99807.38
2023-05-21T19:32:31.422Z,99875.84
2023-05-21T19:35:33.345Z,99854.72
2023-05-21T19:38:36.203Z,99879.03
2023-05-21T19:41:38.177Z,99877.16
2023-05-21T19:44:42.403Z,99871.38
2023-05-21T19:47:44.351Z,99881.03
2023-05-21T19:50:46.968Z,99880.25
2023-05-21T19:53:48.895Z,99868.25
2023-05-21T19:56:51.637Z,99873.03
2023-05-21T19:59:54.802Z,99874.88
2023-05-21T20:02:56.909Z,99902.88
2023-05-21T20:05:58.842Z,99890.22
2023-05-21T20:09:00.954Z,99891.91
2023-05-21T20:12:03.491Z,99881.81
2023-05-21T20:15:07.954Z,99889.44
2023-05-21T20:18:09.894Z,99899.16
2023-05-21T20:21:11.844Z,99885.94
2023-05-21T20:24:16.087Z,99891.53
2023-05-21T20:27:19.639Z,99891.94
2023-05-21T20:30:23.150Z,99881.22
2023-05-21T20:33:25.599Z,99887.84
2023-05-21T20:36:30.504Z,99879.97
2023-05-21T20:39:32.574Z,99886.97
2023-05-21T20:42:35.296Z,99881.72
2023-05-21T20:45:39.532Z,99894.84
2023-05-21T20:48:41.883Z,99893.69
2023-05-21T20:51:44.880Z,99900.88
2023-05-21T20:54:46.798Z,99897.88
2023-05-21T20:57:48.786Z,99902.06
2023-05-21T21:00:52.034Z,99886.13
2023-05-21T21:03:54.042Z,99888.78
2023-05-21T21:06:56.676Z,99889.56
2023-05-21T21:09:59.775Z,99891.06
2023-05-21T21:13:01.644Z,99865.69
2023-05-21T21:16:06.183Z,99887.25
2023-05-21T21:19:08.078Z,99885.81
2023-05-21T21:22:10.919Z,99893.66
2023-05-21T21:25:14.006Z,99891.19
2023-05-21T21:28:16.017Z,99885.00
2023-05-21T21:31:20.175Z,99944.47
2023-05-21T21:34:23.612Z,99935.47
2023-05-21T21:37:25.753Z,99930.72
2023-05-21T21:40:27.768Z,99922.06
2023-05-21T21:43:30.706Z,99905.22
2023-05-21T21:46:34.105Z,99930.03
2023-05-21T21:49:38.375Z,99897.19
2023-05-21T21:52:40.781Z,99915.66
2023-05-21T21:55:42.665Z,99922.28
2023-05-21T21:58:44.592Z,99913.44
2023-05-21T22:01:47.977Z,99927.28
2023-05-21T22:04:50.809Z,99913.66
2023-05-21T22:07:52.851Z,99910.56
2023-05-21T22:10:54.786Z,99916.56
2023-05-21T22:13:57.655Z,99857.50
2023-05-21T22:17:01.096Z,99911.19
2023-05-21T22:20:04.798Z,99911.63
2023-05-21T22:23:06.687Z,99914.50
2023-05-21T22:26:09.574Z,99915.09
2023-05-21T22:29:11.612Z,99913.44
2023-05-21T22:32:14.961Z,99902.91
2023-05-21T22:35:17.569Z,99892.50
2023-05-21T22:38:19.436Z,99906.91
2023-05-21T22:41:22.912Z,99912.69
2023-05-21T22:44:24.838Z,99922.81
2023-05-21T22:47:28.935Z,99929.56
2023-05-21T22:50:32.967Z,99928.94
2023-05-21T22:53:35.640Z,99926.81
2023-05-21T22:56:38.453Z,99936.28
2023-05-21T22:59:40.296Z,99935.88
2023-05-21T23:02:43.826Z,99934.75
2023-05-21T23:05:46.080Z,99932.50
2023-05-21T23:08:48.058Z,99925.38
2023-05-21T23:11:50.632Z,99939.16
2023-05-21T23:14:52.480Z,99925.09
2023-05-21T23:17:55.916Z,99932.59
2023-05-21T23:20:57.876Z,99936.16
2023-05-21T23:23:59.780Z,99915.81
2023-05-21T23:27:03.128Z,99898.50
2023-05-21T23:30:05.898Z,99920.91
2023-05-21T23:33:09.962Z,99921.66
2023-05-21T23:36:11.966Z,99926.41
2023-05-21T23:39:13.810Z,99917.03
2023-05-21T23:42:16.036Z,99910.56
2023-05-21T23:45:18.252Z,99910.25
2023-05-21T23:48:21.880Z,99909.97
2023-05-21T23:51:23.803Z,99908.75
2023-05-21T23:54:25.847Z,99931.56
2023-05-21T23:57:28.344Z,99924.97
